createdAt,value
2018-11-25T00:00:30.840Z,87.20
2018-11-25T00:03:02.640Z,87.60
2018-11-25T00:05:35.540Z,87.50
2018-11-25T00:08:07.099Z,87.30
2018-11-25T00:10:38.623Z,87.40
2018-11-25T00:13:10.222Z,87.30
2018-11-25T00:15:42.120Z,87.10
2018-11-25T00:18:13.980Z,87.10
2018-11-25T00:20:46.283Z,87.10
2018-11-25T00:23:18.761Z,87.10
2018-11-25T00:25:50.402Z,87.30
2018-11-25T00:28:22.645Z,87.60
2018-11-25T00:30:54.320Z,87.30
2018-11-25T00:33:26.079Z,87.00
2018-11-25T00:35:56.720Z,87.00
2018-11-25T00:38:28.299Z,86.80
2018-11-25T00:40:59.880Z,86.90
2018-11-25T00:43:32.981Z,87.00
2018-11-25T00:46:05.462Z,87.00
2018-11-25T00:48:37.360Z,87.10
2018-11-25T00:51:09.300Z,86.90
2018-11-25T00:53:40.602Z,87.00
2018-11-25T00:56:12.580Z,87.10
2018-11-25T00:58:45.280Z,87.10
2018-11-25T01:01:17.040Z,87.00
2018-11-25T01:03:49.121Z,86.90
2018-11-25T01:06:20.900Z,87.00
2018-11-25T01:08:51.980Z,86.80
2018-11-25T01:11:23.320Z,86.60
2018-11-25T01:13:55.221Z,86.40
2018-11-25T01:16:26.283Z,86.50
2018-11-25T01:18:58.606Z,86.60
2018-11-25T01:21:30.580Z,86.60
2018-11-25T01:24:02.020Z,86.20
2018-11-25T01:26:33.740Z,86.30
2018-11-25T01:29:05.643Z,86.30
2018-11-25T01:31:37.563Z,86.40
2018-11-25T01:34:09.962Z,86.50
2018-11-25T01:36:41.482Z,86.50
2018-11-25T01:39:13.420Z,86.30
2018-11-25T01:41:45.380Z,86.20
2018-11-25T01:44:17.000Z,86.10
2018-11-25T01:46:48.740Z,85.80
2018-11-25T01:49:20.866Z,85.60
2018-11-25T01:51:52.899Z,85.90
2018-11-25T01:54:25.781Z,85.70
2018-11-25T01:56:57.622Z,85.40
2018-11-25T01:59:30.581Z,85.60
2018-11-25T02:02:01.742Z,85.60
2018-11-25T02:04:34.061Z,85.70
2018-11-25T02:07:05.444Z,85.70
2018-11-25T02:09:37.680Z,85.90
2018-11-25T02:12:09.120Z,85.70
2018-11-25T02:14:41.462Z,85.60
2018-11-25T02:17:12.920Z,85.80
2018-11-25T02:19:45.100Z,85.80
2018-11-25T02:22:17.122Z,85.70
2018-11-25T02:24:49.300Z,85.60
2018-11-25T02:27:22.882Z,85.70
2018-11-25T02:29:54.882Z,85.90
2018-11-25T02:32:28.462Z,85.90
2018-11-25T02:35:00.040Z,85.90
2018-11-25T02:37:32.362Z,85.80
2018-11-25T02:40:04.102Z,86.00
2018-11-25T02:42:35.382Z,86.00
2018-11-25T02:45:07.860Z,86.10
2018-11-25T02:47:40.180Z,86.20
2018-11-25T02:50:17.642Z,86.40
2018-11-25T02:52:49.920Z,86.00
2018-11-25T02:55:23.342Z,85.80
2018-11-25T02:57:55.360Z,86.30
2018-11-25T03:00:26.804Z,86.40
2018-11-25T03:02:58.700Z,86.50
2018-11-25T03:05:30.962Z,86.20
2018-11-25T03:08:02.700Z,86.10
2018-11-25T03:10:34.823Z,86.10
2018-11-25T03:13:06.800Z,85.70
2018-11-25T03:15:39.320Z,85.30
2018-11-25T03:18:11.680Z,85.30
2018-11-25T03:20:42.900Z,85.50
2018-11-25T03:23:14.908Z,85.60
2018-11-25T03:25:47.160Z,85.40
2018-11-25T03:28:18.862Z,85.50
2018-11-25T03:30:51.200Z,85.40
2018-11-25T03:33:23.240Z,85.50
2018-11-25T03:35:55.381Z,85.80
2018-11-25T03:38:27.380Z,85.60
2018-11-25T03:40:59.040Z,85.20
2018-11-25T03:43:30.921Z,85.30
2018-11-25T03:46:02.060Z,85.30
2018-11-25T03:48:34.020Z,85.10
2018-11-25T03:51:05.440Z,85.10
2018-11-25T03:53:37.363Z,84.90
2018-11-25T03:56:08.561Z,84.80
2018-11-25T03:58:40.709Z,85.00
2018-11-25T04:01:11.721Z,85.00
2018-11-25T04:03:43.780Z,85.00
2018-11-25T04:06:16.101Z,85.10
2018-11-25T04:08:48.040Z,85.00
2018-11-25T04:11:19.621Z,85.00
2018-11-25T04:13:51.840Z,84.80
2018-11-25T04:16:22.940Z,84.50
2018-11-25T04:18:54.180Z,84.40
2018-11-25T04:22:50.232Z,84.20
2018-11-25T04:25:21.980Z,84.10
2018-11-25T04:27:54.101Z,84.60
2018-11-25T04:30:26.202Z,84.70
2018-11-25T04:32:58.941Z,85.10
2018-11-25T04:35:30.900Z,85.30
2018-11-25T04:38:03.861Z,84.80
2018-11-25T04:40:35.960Z,84.40
2018-11-25T04:43:08.520Z,84.40
2018-11-25T04:45:40.400Z,84.40
2018-11-25T04:48:11.921Z,84.70
2018-11-25T04:50:43.780Z,84.90
2018-11-25T04:53:15.061Z,84.80
2018-11-25T04:55:47.400Z,84.70
2018-11-25T04:58:20.761Z,84.70
2018-11-25T05:00:52.220Z,84.60
2018-11-25T05:03:23.541Z,84.40
2018-11-25T05:05:55.420Z,84.30
2018-11-25T05:08:26.682Z,84.10
2018-11-25T05:10:58.840Z,83.90
2018-11-25T05:13:31.660Z,83.90
2018-11-25T05:16:03.320Z,84.10
2018-11-25T05:18:35.600Z,84.00
2018-11-25T05:21:07.988Z,83.90
2018-11-25T05:23:39.380Z,83.80
2018-11-25T05:26:11.400Z,83.60
2018-11-25T05:28:43.380Z,83.60
2018-11-25T05:31:15.460Z,84.10
2018-11-25T05:33:47.400Z,84.30
2018-11-25T05:36:18.660Z,84.60
2018-11-25T05:38:50.261Z,85.30
2018-11-25T05:41:22.021Z,86.10
2018-11-25T05:43:53.903Z,86.60
2018-11-25T05:46:26.021Z,87.20
2018-11-25T05:48:57.800Z,87.70
2018-11-25T05:51:29.781Z,88.00
2018-11-25T05:54:01.840Z,88.50
2018-11-25T05:56:33.285Z,88.50
2018-11-25T05:59:04.562Z,88.70
2018-11-25T06:01:36.640Z,89.00
2018-11-25T06:04:09.040Z,89.00
2018-11-25T06:06:41.060Z,89.20
2018-11-25T06:09:13.200Z,89.10
2018-11-25T06:11:45.520Z,89.00
2018-11-25T06:14:18.486Z,88.80
2018-11-25T06:16:50.140Z,88.70
2018-11-25T06:19:22.779Z,88.80
2018-11-25T06:21:53.883Z,88.90
2018-11-25T06:24:26.120Z,88.80
2018-11-25T06:26:58.844Z,88.60
2018-11-25T06:29:30.560Z,88.50
2018-11-25T06:32:03.021Z,87.90
2018-11-25T06:34:35.020Z,87.30
2018-11-25T06:37:06.661Z,87.20
2018-11-25T06:39:38.400Z,87.20
2018-11-25T06:42:10.240Z,87.00
2018-11-25T06:44:42.288Z,87.10
2018-11-25T06:47:13.840Z,87.70
2018-11-25T06:49:45.721Z,88.40
2018-11-25T06:52:18.061Z,88.70
2018-11-25T06:54:50.380Z,89.00
2018-11-25T06:57:22.340Z,89.30
2018-11-25T06:59:54.885Z,89.70
2018-11-25T07:02:26.462Z,90.00
2018-11-25T07:04:58.880Z,90.10
2018-11-25T07:07:30.700Z,90.10
2018-11-25T07:10:03.180Z,90.20
2018-11-25T07:12:35.242Z,90.30
2018-11-25T07:15:07.982Z,90.40
2018-11-25T07:17:40.301Z,90.50
2018-11-25T07:20:14.107Z,90.50
2018-11-25T07:22:46.182Z,90.30
2018-11-25T07:25:21.342Z,90.30
2018-11-25T07:27:54.299Z,90.30
2018-11-25T07:30:28.600Z,90.20
2018-11-25T07:33:00.480Z,90.20
2018-11-25T07:35:32.620Z,90.40
2018-11-25T07:38:04.923Z,90.60
2018-11-25T07:40:36.741Z,90.60
2018-11-25T07:43:09.620Z,90.70
2018-11-25T07:45:41.864Z,90.80
2018-11-25T07:48:13.740Z,90.80
2018-11-25T07:50:46.040Z,90.80
2018-11-25T07:53:18.120Z,91.10
2018-11-25T07:55:50.420Z,90.50
2018-11-25T07:58:22.440Z,90.30
2018-11-25T08:00:55.448Z,90.10
2018-11-25T08:03:27.220Z,90.30
2018-11-25T08:05:59.944Z,90.20
2018-11-25T08:08:31.963Z,90.10
2018-11-25T08:11:04.160Z,89.50
2018-11-25T08:13:36.341Z,89.00
2018-11-25T08:16:08.144Z,89.40
2018-11-25T08:18:40.140Z,89.60
2018-11-25T08:21:11.503Z,89.70
2018-11-25T08:23:42.680Z,89.60
2018-11-25T08:26:14.760Z,89.80
2018-11-25T08:28:46.781Z,89.60
2018-11-25T08:31:18.460Z,89.50
2018-11-25T08:33:50.842Z,89.60
2018-11-25T08:36:22.542Z,89.90
2018-11-25T08:38:55.122Z,89.70
2018-11-25T08:41:28.000Z,90.10
2018-11-25T08:43:59.821Z,90.00
2018-11-25T08:46:32.622Z,90.00
2018-11-25T08:49:04.000Z,89.10
2018-11-25T08:51:36.900Z,89.10
2018-11-25T08:54:06.881Z,89.20
2018-11-25T08:56:36.940Z,89.00
2018-11-25T08:59:06.981Z,89.20
2018-11-25T09:01:39.540Z,89.40
2018-11-25T09:04:09.421Z,89.40
2018-11-25T09:06:39.501Z,89.40
2018-11-25T09:09:12.040Z,89.70
2018-11-25T09:11:43.241Z,89.20
2018-11-25T09:14:15.921Z,89.30
2018-11-25T09:16:46.862Z,89.10
2018-11-25T09:19:18.280Z,89.60
2018-11-25T09:21:50.680Z,89.70
2018-11-25T09:24:22.441Z,89.30
2018-11-25T09:26:54.647Z,88.90
2018-11-25T09:29:26.821Z,89.20
2018-11-25T09:31:58.840Z,89.30
2018-11-25T09:34:30.481Z,88.50
2018-11-25T09:37:02.995Z,88.50
2018-11-25T09:39:35.900Z,88.60
2018-11-25T09:42:08.142Z,89.00
2018-11-25T09:44:41.781Z,88.20
2018-11-25T09:47:14.700Z,87.90
2018-11-25T09:49:47.220Z,87.80
2018-11-25T09:52:20.180Z,88.20
2018-11-25T09:54:52.440Z,87.90
2018-11-25T09:57:24.622Z,88.00
2018-11-25T09:59:56.821Z,88.10
2018-11-25T10:02:29.360Z,87.20
2018-11-25T10:05:02.862Z,87.60
2018-11-25T10:07:34.561Z,87.90
2018-11-25T10:10:08.180Z,86.30
2018-11-25T10:12:40.120Z,86.30
2018-11-25T10:15:14.386Z,86.70
2018-11-25T10:17:45.846Z,86.80
2018-11-25T10:20:20.981Z,86.90
2018-11-25T10:22:52.405Z,86.50
2018-11-25T10:25:25.028Z,86.00
2018-11-25T10:27:56.961Z,86.40
2018-11-25T10:30:31.981Z,86.60
2018-11-25T10:33:04.562Z,84.90
2018-11-25T10:35:36.985Z,82.70
2018-11-25T10:38:09.902Z,82.40
2018-11-25T10:40:42.242Z,82.00
2018-11-25T10:43:13.961Z,81.40
2018-11-25T10:45:46.920Z,80.60
2018-11-25T10:48:18.580Z,80.10
2018-11-25T10:50:51.388Z,79.60
2018-11-25T10:53:24.160Z,78.30
2018-11-25T10:55:56.302Z,79.00
2018-11-25T10:58:28.262Z,78.90
2018-11-25T11:01:06.081Z,78.00
2018-11-25T11:03:42.620Z,78.70
2018-11-25T11:06:20.840Z,79.50
2018-11-25T11:08:52.419Z,79.20
2018-11-25T11:11:26.541Z,80.00
2018-11-25T11:13:58.721Z,79.90
2018-11-25T11:16:31.941Z,80.70
2018-11-25T11:19:03.180Z,81.40
2018-11-25T11:21:36.601Z,82.00
2018-11-25T11:24:09.662Z,81.60
2018-11-25T11:26:41.720Z,81.80
2018-11-25T11:29:13.620Z,82.10
2018-11-25T11:31:45.221Z,81.90
2018-11-25T11:34:17.200Z,81.60
2018-11-25T11:36:48.967Z,81.40
2018-11-25T11:39:20.621Z,81.60
2018-11-25T11:41:53.341Z,81.60
2018-11-25T11:44:24.861Z,82.00
2018-11-25T11:46:56.980Z,81.80
2018-11-25T11:49:28.501Z,81.90
2018-11-25T11:52:01.525Z,82.60
2018-11-25T11:54:33.680Z,82.70
2018-11-25T11:57:06.061Z,82.40
2018-11-25T11:59:37.060Z,82.10
2018-11-25T12:02:09.960Z,82.50
2018-11-25T12:04:42.284Z,82.60
2018-11-25T12:07:14.581Z,82.60
2018-11-25T12:09:46.921Z,82.30
2018-11-25T12:12:19.141Z,83.00
2018-11-25T12:14:50.395Z,83.40
2018-11-25T12:17:21.600Z,83.20
2018-11-25T12:19:53.424Z,83.10
2018-11-25T12:22:25.640Z,83.30
2018-11-25T12:24:57.100Z,83.60
2018-11-25T12:27:29.240Z,83.60
2018-11-25T12:30:02.842Z,83.50
2018-11-25T12:32:36.041Z,83.50
2018-11-25T12:35:07.602Z,83.60
2018-11-25T12:37:39.180Z,83.20
2018-11-25T12:40:13.320Z,83.80
2018-11-25T12:42:47.077Z,83.80
2018-11-25T12:45:19.620Z,84.00
2018-11-25T12:47:52.781Z,83.90
2018-11-25T12:50:27.641Z,83.70
2018-11-25T12:53:01.048Z,83.90
2018-11-25T12:55:33.303Z,83.30
2018-11-25T12:58:05.800Z,83.60
2018-11-25T13:00:39.280Z,83.40
2018-11-25T13:03:13.100Z,83.20
2018-11-25T13:05:46.351Z,83.00
2018-11-25T13:08:17.920Z,83.00
2018-11-25T13:10:51.242Z,83.00
2018-11-25T13:13:22.881Z,82.60
2018-11-25T13:15:55.200Z,83.00
2018-11-25T13:18:27.168Z,83.00
2018-11-25T13:20:59.060Z,82.80
2018-11-25T13:23:31.826Z,82.80
2018-11-25T13:26:02.100Z,82.50
2018-11-25T13:28:34.240Z,82.90
2018-11-25T13:31:06.983Z,83.00
2018-11-25T13:33:38.921Z,82.90
2018-11-25T13:36:13.280Z,82.80
2018-11-25T13:38:44.520Z,82.30
2018-11-25T13:41:16.880Z,81.90
2018-11-25T13:43:49.163Z,81.50
2018-11-25T13:46:21.421Z,81.00
2018-11-25T13:48:54.282Z,80.70
2018-11-25T13:51:27.820Z,80.70
2018-11-25T13:54:02.700Z,81.20
2018-11-25T13:56:35.580Z,81.00
2018-11-25T13:59:07.341Z,80.80
2018-11-25T14:01:40.081Z,81.20
2018-11-25T14:04:12.520Z,81.00
2018-11-25T14:06:44.680Z,81.00
2018-11-25T14:09:17.820Z,81.00
2018-11-25T14:11:50.821Z,80.80
2018-11-25T14:14:22.661Z,81.10
2018-11-25T14:16:55.261Z,81.10
2018-11-25T14:19:27.761Z,81.00
2018-11-25T14:21:59.500Z,80.90
2018-11-25T14:24:31.401Z,80.90
2018-11-25T14:27:04.220Z,81.00
2018-11-25T14:29:36.341Z,81.10
2018-11-25T14:32:10.100Z,81.50
2018-11-25T14:34:42.281Z,81.40
2018-11-25T14:37:15.141Z,81.20
2018-11-25T14:39:46.902Z,81.40
2018-11-25T14:42:19.001Z,81.70
2018-11-25T14:44:51.021Z,81.80
2018-11-25T14:47:23.982Z,82.00
2018-11-25T14:49:56.120Z,82.00
2018-11-25T14:52:28.942Z,81.90
2018-11-25T14:55:00.522Z,82.10
2018-11-25T14:57:32.622Z,82.30
2018-11-25T15:00:05.541Z,82.40
2018-11-25T15:02:37.836Z,82.30
2018-11-25T15:05:14.640Z,82.60
2018-11-25T15:07:46.380Z,82.80
2018-11-25T15:10:18.805Z,82.90
2018-11-25T15:12:50.701Z,82.90
2018-11-25T15:15:23.024Z,83.20
2018-11-25T15:17:55.761Z,82.90
2018-11-25T15:20:26.835Z,83.00
2018-11-25T15:23:01.581Z,82.90
2018-11-25T15:25:35.700Z,82.70
2018-11-25T15:28:10.520Z,82.80
2018-11-25T15:30:42.500Z,82.70
2018-11-25T15:33:15.300Z,82.80
2018-11-25T15:35:47.407Z,83.10
2018-11-25T15:38:18.788Z,82.90
2018-11-25T15:40:51.583Z,82.90
2018-11-25T15:43:23.841Z,82.60
2018-11-25T15:45:56.000Z,82.70
2018-11-25T15:48:29.901Z,82.80
2018-11-25T15:51:02.100Z,82.90
2018-11-25T15:53:34.094Z,83.00
2018-11-25T15:56:08.029Z,83.10
2018-11-25T15:58:40.741Z,82.90
2018-11-25T16:01:13.220Z,82.20
2018-11-25T16:03:45.110Z,82.40
2018-11-25T16:06:27.501Z,82.40
2018-11-25T16:08:59.410Z,82.30
2018-11-25T16:11:31.264Z,82.10
2018-11-25T16:14:04.303Z,82.40
2018-11-25T16:16:36.042Z,82.30
2018-11-25T16:19:07.983Z,82.20
2018-11-25T16:21:40.005Z,82.00
2018-11-25T16:24:11.981Z,82.00
2018-11-25T16:26:44.923Z,82.20
2018-11-25T16:29:20.780Z,82.30
2018-11-25T16:31:52.421Z,82.50
2018-11-25T16:34:25.768Z,82.20
2018-11-25T16:36:57.083Z,82.50
2018-11-25T16:39:28.975Z,82.50
2018-11-25T16:42:01.041Z,82.60
2018-11-25T16:44:33.122Z,82.20
2018-11-25T16:47:05.061Z,82.20
2018-11-25T16:49:38.521Z,81.40
2018-11-25T16:52:10.382Z,81.40
2018-11-25T16:54:42.163Z,80.90
2018-11-25T16:57:13.680Z,80.90
2018-11-25T16:59:46.821Z,81.10
2018-11-25T17:02:18.242Z,80.50
2018-11-25T17:04:50.460Z,80.70
2018-11-25T17:07:22.161Z,80.80
2018-11-25T17:09:56.000Z,80.00
2018-11-25T17:12:27.880Z,80.10
2018-11-25T17:14:59.941Z,79.60
2018-11-25T17:17:32.162Z,80.30
2018-11-25T17:20:04.340Z,80.50
2018-11-25T17:22:36.640Z,80.10
2018-11-25T17:25:11.854Z,79.70
2018-11-25T17:27:42.440Z,80.10
2018-11-25T17:30:15.841Z,80.20
2018-11-25T17:32:47.703Z,80.30
2018-11-25T17:35:23.080Z,80.20
2018-11-25T17:37:55.100Z,80.30
2018-11-25T17:40:28.390Z,80.20
2018-11-25T17:43:00.780Z,79.90
2018-11-25T17:45:33.248Z,80.50
2018-11-25T17:48:05.101Z,80.60
2018-11-25T17:50:38.162Z,80.70
2018-11-25T17:53:10.321Z,80.70
2018-11-25T17:55:42.862Z,81.10
2018-11-25T17:58:15.400Z,80.90
2018-11-25T18:00:52.962Z,81.10
2018-11-25T18:03:27.181Z,81.90
2018-11-25T18:05:59.701Z,82.10
2018-11-25T18:08:31.502Z,82.40
2018-11-25T18:11:03.540Z,82.50
2018-11-25T18:13:36.840Z,81.90
2018-11-25T18:16:09.960Z,82.40
2018-11-25T18:18:48.880Z,82.70
2018-11-25T18:21:21.540Z,82.50
2018-11-25T18:23:53.260Z,82.20
2018-11-25T18:26:25.020Z,82.10
2018-11-25T18:28:58.101Z,82.60
2018-11-25T18:31:30.381Z,82.90
2018-11-25T18:34:02.621Z,82.60
2018-11-25T18:36:34.262Z,82.70
2018-11-25T18:39:06.501Z,83.10
2018-11-25T18:41:38.260Z,83.50
2018-11-25T18:44:10.640Z,83.20
2018-11-25T18:46:47.597Z,82.60
2018-11-25T18:49:15.660Z,82.40
2018-11-25T18:51:48.081Z,82.70
2018-11-25T18:54:19.502Z,83.10
2018-11-25T18:56:50.561Z,82.60
2018-11-25T18:59:23.040Z,82.80
2018-11-25T19:02:01.782Z,82.80
2018-11-25T19:04:34.582Z,82.80
2018-11-25T19:07:06.900Z,83.00
2018-11-25T19:09:38.647Z,83.10
2018-11-25T19:12:11.343Z,83.30
2018-11-25T19:14:44.460Z,83.30
2018-11-25T19:17:14.740Z,83.60
2018-11-25T19:19:47.841Z,83.70
2018-11-25T19:22:19.522Z,83.50
2018-11-25T19:24:52.480Z,83.80
2018-11-25T19:27:23.960Z,84.00
2018-11-25T19:29:56.521Z,84.40
2018-11-25T19:32:29.141Z,84.20
2018-11-25T19:35:01.521Z,84.00
2018-11-25T19:37:33.041Z,84.10
2018-11-25T19:40:05.161Z,84.10
2018-11-25T19:42:36.743Z,84.30
2018-11-25T19:45:11.041Z,84.40
2018-11-25T19:47:43.301Z,84.60
2018-11-25T19:50:19.044Z,84.10
2018-11-25T19:52:50.560Z,84.00
2018-11-25T19:55:23.580Z,84.40
2018-11-25T19:57:55.464Z,84.10
2018-11-25T20:00:29.141Z,83.70
2018-11-25T20:03:01.678Z,83.90
2018-11-25T20:05:34.480Z,83.80
2018-11-25T20:08:06.281Z,83.50
2018-11-25T20:10:38.323Z,84.10
2018-11-25T20:13:12.082Z,84.10
2018-11-25T20:15:44.966Z,84.00
2018-11-25T20:18:17.020Z,83.80
2018-11-25T20:20:52.880Z,83.90
2018-11-25T20:23:24.541Z,83.70
2018-11-25T20:25:56.620Z,83.20
2018-11-25T20:28:29.320Z,83.30
2018-11-25T20:31:01.025Z,83.80
2018-11-25T20:33:37.702Z,83.80
2018-11-25T20:36:10.761Z,83.70
2018-11-25T20:38:46.621Z,83.30
2018-11-25T20:41:18.147Z,83.20
2018-11-25T20:43:50.644Z,83.10
2018-11-25T20:46:26.540Z,83.60
2018-11-25T20:48:59.240Z,83.40
2018-11-25T20:51:35.681Z,83.80
2018-11-25T20:54:07.820Z,83.30
2018-11-25T20:56:40.582Z,82.80
2018-11-25T20:59:12.400Z,83.20
2018-11-25T21:01:44.160Z,83.40
2018-11-25T21:04:16.302Z,83.60
2018-11-25T21:06:49.622Z,83.50
2018-11-25T21:09:21.382Z,83.20
2018-11-25T21:11:53.703Z,83.30
2018-11-25T21:14:26.201Z,83.40
2018-11-25T21:16:59.180Z,83.50
2018-11-25T21:19:31.260Z,83.00
2018-11-25T21:22:03.021Z,83.20
2018-11-25T21:24:34.881Z,83.30
2018-11-25T21:27:07.342Z,83.50
2018-11-25T21:29:40.061Z,83.40
2018-11-25T21:32:12.621Z,83.20
2018-11-25T21:34:44.301Z,83.00
2018-11-25T21:37:15.641Z,83.20
2018-11-25T21:39:47.540Z,83.30
2018-11-25T21:42:19.243Z,83.30
2018-11-25T21:44:50.700Z,83.60
2018-11-25T21:47:22.360Z,83.10
2018-11-25T21:49:54.363Z,83.50
2018-11-25T21:52:26.740Z,83.20
2018-11-25T21:54:57.961Z,83.10
2018-11-25T21:57:30.940Z,83.20
2018-11-25T22:00:02.681Z,82.50
2018-11-25T22:02:34.580Z,82.50
2018-11-25T22:05:05.700Z,82.20
2018-11-25T22:07:38.680Z,82.70
2018-11-25T22:10:12.626Z,82.50
2018-11-25T22:12:44.880Z,82.20
2018-11-25T22:15:18.960Z,82.20
2018-11-25T22:17:51.820Z,82.40
2018-11-25T22:20:23.300Z,82.50
2018-11-25T22:22:55.681Z,82.10
2018-11-25T22:25:27.700Z,82.50
2018-11-25T22:27:59.080Z,82.20
2018-11-25T22:30:31.400Z,82.20
2018-11-25T22:33:03.500Z,81.90
2018-11-25T22:35:36.309Z,81.70
2018-11-25T22:38:10.322Z,81.80
2018-11-25T22:40:42.380Z,81.40
2018-11-25T22:43:14.023Z,81.60
2018-11-25T22:45:46.821Z,82.20
2018-11-25T22:48:18.380Z,81.40
2018-11-25T22:50:49.361Z,81.10
2018-11-25T22:53:21.022Z,82.00
2018-11-25T22:55:53.221Z,81.90
2018-11-25T22:58:25.050Z,82.10
2018-11-25T23:00:57.342Z,82.60
2018-11-25T23:03:29.220Z,82.60
2018-11-25T23:06:10.560Z,83.10
2018-11-25T23:08:43.080Z,82.60
2018-11-25T23:11:15.201Z,82.80
2018-11-25T23:13:47.065Z,83.30
2018-11-25T23:16:18.960Z,82.90
2018-11-25T23:18:50.320Z,83.30
2018-11-25T23:21:23.420Z,82.90
2018-11-25T23:23:54.520Z,83.00
2018-11-25T23:26:26.700Z,82.70
2018-11-25T23:28:58.100Z,82.70
2018-11-25T23:31:30.700Z,83.00
2018-11-25T23:34:03.940Z,83.20
2018-11-25T23:36:35.702Z,83.20
2018-11-25T23:39:09.220Z,83.20
2018-11-25T23:41:42.400Z,83.20
2018-11-25T23:44:13.980Z,83.00
2018-11-25T23:46:45.280Z,83.10
2018-11-25T23:49:16.061Z,83.20
2018-11-25T23:51:48.127Z,83.30
2018-11-25T23:54:20.060Z,83.20
2018-11-25T23:56:53.300Z,83.00
2018-11-25T23:59:24.840Z,83.30
